createdAt,value
2019-01-24T00:02:21.523Z,8.82
2019-01-24T00:04:52.342Z,8.84
2019-01-24T00:07:22.969Z,8.93
2019-01-24T00:09:53.410Z,8.98
2019-01-24T00:12:23.893Z,8.91
2019-01-24T00:14:54.291Z,8.99
2019-01-24T00:17:24.732Z,8.85
2019-01-24T00:19:55.658Z,8.68
2019-01-24T00:22:26.073Z,8.68
2019-01-24T00:24:56.471Z,8.65
2019-01-24T00:27:26.984Z,8.62
2019-01-24T00:29:57.427Z,8.70
2019-01-24T00:32:27.990Z,8.73
2019-01-24T00:34:58.394Z,8.81
2019-01-24T00:37:28.769Z,8.82
2019-01-24T00:39:59.114Z,8.84
2019-01-24T00:42:29.568Z,8.75
2019-01-24T00:44:59.910Z,8.79
2019-01-24T00:47:30.268Z,8.74
2019-01-24T00:50:00.642Z,8.74
2019-01-24T00:52:31.007Z,8.73
2019-01-24T00:55:01.389Z,8.71
2019-01-24T00:57:31.789Z,8.63
2019-01-24T01:00:02.105Z,8.63
2019-01-24T01:02:32.549Z,8.65
2019-01-24T01:05:03.026Z,8.63
2019-01-24T01:07:33.436Z,8.65
2019-01-24T01:10:03.780Z,8.66
2019-01-24T01:12:34.298Z,8.60
2019-01-24T01:15:07.003Z,8.60
2019-01-24T01:17:37.463Z,8.59
2019-01-24T01:20:09.687Z,8.59
2019-01-24T01:22:40.031Z,8.57
2019-01-24T01:25:12.074Z,8.57
2019-01-24T01:27:42.493Z,8.53
2019-01-24T01:30:15.890Z,8.54
2019-01-24T01:32:46.510Z,8.49
2019-01-24T01:35:16.872Z,8.44
2019-01-24T01:37:47.465Z,8.39
2019-01-24T01:40:18.735Z,8.37
2019-01-24T01:42:49.068Z,8.38
2019-01-24T01:45:24.186Z,8.43
2019-01-24T01:47:56.127Z,8.49
2019-01-24T01:50:27.167Z,8.53
2019-01-24T01:52:59.023Z,8.53
2019-01-24T01:55:29.888Z,8.51
2019-01-24T01:58:00.206Z,8.51
2019-01-24T02:00:31.348Z,8.43
2019-01-24T02:03:02.018Z,8.34
2019-01-24T02:05:33.462Z,8.33
2019-01-24T02:08:04.604Z,8.42
2019-01-24T02:10:35.507Z,8.47
2019-01-24T02:13:06.127Z,8.42
2019-01-24T02:15:36.480Z,8.33
2019-01-24T02:18:06.946Z,8.11
2019-01-24T02:20:37.249Z,7.99
2019-01-24T02:23:08.004Z,7.90
2019-01-24T02:25:38.518Z,7.79
2019-01-24T02:28:08.843Z,7.73
2019-01-24T02:30:39.266Z,7.63
2019-01-24T02:33:09.565Z,7.61
2019-01-24T02:35:39.965Z,7.51
2019-01-24T02:38:10.331Z,7.56
2019-01-24T02:40:40.743Z,7.60
2019-01-24T02:43:11.145Z,7.55
2019-01-24T02:45:41.502Z,7.52
2019-01-24T02:48:11.801Z,7.46
2019-01-24T02:50:42.077Z,7.44
2019-01-24T02:53:12.560Z,7.40
2019-01-24T02:55:42.904Z,7.47
2019-01-24T02:58:13.626Z,7.44
2019-01-24T03:00:43.993Z,7.46
2019-01-24T03:03:14.330Z,7.44
2019-01-24T03:05:44.623Z,7.50
2019-01-24T03:08:16.287Z,7.58
2019-01-24T03:10:46.652Z,7.63
2019-01-24T03:13:16.953Z,7.62
2019-01-24T03:15:47.344Z,7.71
2019-01-24T03:18:17.697Z,7.83
2019-01-24T03:20:48.030Z,7.82
2019-01-24T03:23:18.828Z,7.80
2019-01-24T03:25:49.112Z,7.82
2019-01-24T03:28:19.726Z,7.91
2019-01-24T03:30:50.726Z,7.94
2019-01-24T03:33:21.027Z,7.98
2019-01-24T03:35:51.344Z,8.02
2019-01-24T03:38:21.807Z,8.04
2019-01-24T03:40:52.138Z,8.04
2019-01-24T03:43:22.430Z,8.00
2019-01-24T03:45:52.787Z,8.06
2019-01-24T03:48:23.165Z,8.08
2019-01-24T03:50:53.585Z,8.09
2019-01-24T03:53:23.983Z,8.13
2019-01-24T03:55:54.355Z,8.17
2019-01-24T03:58:25.717Z,8.18
2019-01-24T04:00:56.114Z,8.30
2019-01-24T04:03:26.478Z,8.30
2019-01-24T04:05:56.832Z,8.30
2019-01-24T04:08:27.306Z,8.40
2019-01-24T04:10:57.669Z,8.45
2019-01-24T04:13:27.962Z,8.60
2019-01-24T04:15:58.364Z,8.63
2019-01-24T04:18:28.776Z,8.66
2019-01-24T04:20:59.115Z,8.74
2019-01-24T04:23:29.451Z,8.79
2019-01-24T04:25:59.744Z,8.86
2019-01-24T04:28:34.236Z,8.88
2019-01-24T04:31:04.572Z,8.97
2019-01-24T04:33:34.949Z,9.03
2019-01-24T04:36:05.349Z,9.02
2019-01-24T04:38:35.721Z,9.02
2019-01-24T04:41:05.990Z,9.11
2019-01-24T04:43:36.355Z,9.11
2019-01-24T04:46:06.887Z,9.17
2019-01-24T04:48:37.271Z,9.29
2019-01-24T04:51:07.660Z,9.32
2019-01-24T04:53:37.994Z,9.32
2019-01-24T04:56:08.394Z,9.35
2019-01-24T04:58:38.784Z,9.35
2019-01-24T05:01:09.142Z,9.54
2019-01-24T05:03:40.001Z,9.54
2019-01-24T05:06:10.366Z,9.54
2019-01-24T05:08:41.149Z,9.52
2019-01-24T05:11:11.468Z,9.54
2019-01-24T05:13:41.914Z,9.61
2019-01-24T05:16:12.206Z,9.63
2019-01-24T05:18:42.540Z,9.63
2019-01-24T05:21:12.903Z,9.55
2019-01-24T05:23:43.279Z,9.67
2019-01-24T05:26:13.626Z,9.59
2019-01-24T05:28:44.037Z,9.59
2019-01-24T05:31:14.344Z,9.66
2019-01-24T05:33:44.650Z,9.65
2019-01-24T05:36:14.975Z,9.67
2019-01-24T05:38:45.625Z,9.67
2019-01-24T05:41:15.935Z,9.67
2019-01-24T05:43:46.263Z,9.73
2019-01-24T05:46:16.644Z,9.73
2019-01-24T05:48:46.986Z,9.73
2019-01-24T05:51:17.428Z,9.79
2019-01-24T05:53:47.865Z,9.81
2019-01-24T05:56:18.285Z,9.91
2019-01-24T05:58:48.827Z,9.91
2019-01-24T06:01:19.774Z,9.83
2019-01-24T06:03:51.386Z,9.83
2019-01-24T06:06:23.478Z,9.86
2019-01-24T06:08:54.116Z,9.86
2019-01-24T06:11:25.052Z,9.86
2019-01-24T06:13:57.211Z,9.80
2019-01-24T06:16:29.488Z,9.80
2019-01-24T06:19:00.246Z,9.80
2019-01-24T06:21:31.367Z,9.85
2019-01-24T06:24:03.479Z,9.67
2019-01-24T06:26:34.302Z,9.67
2019-01-24T06:29:05.149Z,9.71
2019-01-24T06:31:37.702Z,9.73
2019-01-24T06:34:08.613Z,9.73
2019-01-24T06:36:44.896Z,9.74
2019-01-24T06:39:15.661Z,9.84
2019-01-24T06:41:46.667Z,9.84
2019-01-24T06:44:17.224Z,9.78
2019-01-24T06:46:47.801Z,9.78
2019-01-24T06:49:18.537Z,9.84
2019-01-24T06:51:49.312Z,9.72
2019-01-24T06:54:20.003Z,9.72
2019-01-24T06:56:50.755Z,9.69
2019-01-24T06:59:23.362Z,9.69
2019-01-24T07:01:54.799Z,9.69
2019-01-24T07:04:25.879Z,9.63
2019-01-24T07:06:57.422Z,9.63
2019-01-24T07:09:29.309Z,9.53
2019-01-24T07:12:00.371Z,9.53
2019-01-24T07:14:31.315Z,9.53
2019-01-24T07:17:02.240Z,9.44
2019-01-24T07:19:34.447Z,9.47
2019-01-24T07:22:05.299Z,9.46
2019-01-24T07:24:37.220Z,9.46
2019-01-24T07:27:07.890Z,9.46
2019-01-24T07:29:38.930Z,9.43
2019-01-24T07:32:20.561Z,9.34
2019-01-24T07:34:51.430Z,9.34
2019-01-24T07:37:22.251Z,9.30
2019-01-24T07:39:53.286Z,9.32
2019-01-24T07:42:25.511Z,9.34
2019-01-24T07:44:57.802Z,9.33
2019-01-24T07:47:28.605Z,9.33
2019-01-24T07:49:59.626Z,9.33
2019-01-24T07:52:37.789Z,9.30
2019-01-24T07:58:00.763Z,9.36
2019-01-24T08:00:31.416Z,9.42
2019-01-24T08:03:02.162Z,9.41
2019-01-24T08:05:32.865Z,9.33
2019-01-24T08:08:03.566Z,9.21
2019-01-24T08:10:34.284Z,9.23
2019-01-24T08:13:06.662Z,9.20
2019-01-24T08:15:42.603Z,9.16
2019-01-24T08:18:13.331Z,9.16
2019-01-24T08:20:44.074Z,9.18
2019-01-24T08:23:15.002Z,9.19
2019-01-24T08:25:45.696Z,9.14
2019-01-24T08:28:17.479Z,9.20
2019-01-24T08:30:48.167Z,9.20
2019-01-24T08:33:18.862Z,9.25
2019-01-24T08:35:50.342Z,9.45
2019-01-24T08:38:21.401Z,9.46
2019-01-24T08:40:52.351Z,9.46
2019-01-24T08:43:23.311Z,9.50
2019-01-24T08:45:54.066Z,9.55
2019-01-24T08:48:24.615Z,9.55
2019-01-24T08:50:55.065Z,9.60
2019-01-24T08:53:27.398Z,9.69
2019-01-24T08:55:58.075Z,9.69
2019-01-24T08:58:28.771Z,9.92
2019-01-24T09:00:59.520Z,9.92
2019-01-24T09:03:30.194Z,9.97
2019-01-24T09:06:01.075Z,10.05
2019-01-24T09:08:31.976Z,10.05
2019-01-24T09:11:02.763Z,10.00
2019-01-24T09:13:33.349Z,9.92
2019-01-24T09:16:04.061Z,9.92
2019-01-24T09:18:34.553Z,9.93
2019-01-24T09:21:05.273Z,9.75
2019-01-24T09:23:35.959Z,9.75
2019-01-24T09:26:06.916Z,9.69
2019-01-24T09:28:41.306Z,9.60
2019-01-24T09:31:11.876Z,9.60
2019-01-24T09:33:42.701Z,9.65
2019-01-24T09:36:14.842Z,9.77
2019-01-24T09:38:45.648Z,9.77
2019-01-24T09:41:16.418Z,9.95
2019-01-24T09:43:47.996Z,10.03
2019-01-24T09:46:18.768Z,10.04
2019-01-24T09:48:49.368Z,10.16
2019-01-24T09:51:40.060Z,10.21
2019-01-24T09:54:10.667Z,10.21
2019-01-24T09:56:41.255Z,10.21
2019-01-24T09:59:12.392Z,10.21
2019-01-24T10:01:44.256Z,10.21
2019-01-24T10:04:15.071Z,10.18
2019-01-24T10:06:46.008Z,10.21
2019-01-24T10:09:16.688Z,10.33
2019-01-24T10:11:47.430Z,10.33
2019-01-24T10:14:18.972Z,10.40
2019-01-24T10:16:49.757Z,10.43
2019-01-24T10:19:21.735Z,10.34
2019-01-24T10:21:52.848Z,10.34
2019-01-24T10:24:23.508Z,10.52
2019-01-24T10:26:55.378Z,10.56
2019-01-24T10:29:26.059Z,10.57
2019-01-24T10:31:56.484Z,10.58
2019-01-24T10:34:27.032Z,10.67
2019-01-24T10:36:57.736Z,10.69
2019-01-24T10:39:29.241Z,10.90
2019-01-24T10:42:00.080Z,11.04
2019-01-24T10:44:30.732Z,11.16
2019-01-24T10:47:01.396Z,11.25
2019-01-24T10:49:32.540Z,11.32
2019-01-24T10:52:03.624Z,11.50
2019-01-24T10:54:35.768Z,11.56
2019-01-24T10:57:06.572Z,11.67
2019-01-24T10:59:37.444Z,11.68
2019-01-24T11:02:09.282Z,11.72
2019-01-24T11:04:40.014Z,11.77
2019-01-24T11:07:10.654Z,11.80
2019-01-24T11:09:41.268Z,11.95
2019-01-24T11:12:12.016Z,12.04
2019-01-24T11:14:42.799Z,12.14
2019-01-24T11:17:14.983Z,12.21
2019-01-24T11:19:45.598Z,12.16
2019-01-24T11:22:17.110Z,12.22
2019-01-24T11:24:47.734Z,12.30
2019-01-24T11:27:18.554Z,12.40
2019-01-24T11:29:49.341Z,12.40
2019-01-24T11:32:20.296Z,12.46
2019-01-24T11:34:52.614Z,12.48
2019-01-24T11:37:23.618Z,12.34
2019-01-24T11:39:54.361Z,12.24
2019-01-24T11:42:26.000Z,12.17
2019-01-24T11:44:56.600Z,12.03
2019-01-24T11:47:27.621Z,12.06
2019-01-24T11:49:58.336Z,12.01
2019-01-24T11:52:29.927Z,12.06
2019-01-24T11:55:00.746Z,11.97
2019-01-24T11:57:31.528Z,11.97
2019-01-24T12:00:02.328Z,11.95
2019-01-24T12:02:39.566Z,12.03
2019-01-24T12:05:06.636Z,11.90
2019-01-24T12:07:37.341Z,11.82
2019-01-24T12:10:10.374Z,11.64
2019-01-24T12:12:41.866Z,11.49
2019-01-24T12:15:14.909Z,11.38
2019-01-24T12:17:47.033Z,11.26
2019-01-24T12:20:21.219Z,11.13
2019-01-24T12:22:52.003Z,11.19
2019-01-24T12:25:23.319Z,11.10
2019-01-24T12:27:54.041Z,11.14
2019-01-24T12:30:30.430Z,11.30
2019-01-24T12:33:02.191Z,11.30
2019-01-24T12:35:33.165Z,11.35
2019-01-24T12:38:04.557Z,11.43
2019-01-24T12:40:36.265Z,11.52
2019-01-24T12:43:08.507Z,11.57
2019-01-24T12:45:40.466Z,11.61
2019-01-24T12:48:11.074Z,11.72
2019-01-24T12:50:41.771Z,11.72
2019-01-24T12:53:12.472Z,11.65
2019-01-24T12:55:43.542Z,11.58
2019-01-24T12:58:14.248Z,11.54
2019-01-24T13:00:45.085Z,11.55
2019-01-24T13:03:16.001Z,11.56
2019-01-24T13:05:46.643Z,11.61
2019-01-24T13:08:37.310Z,11.63
2019-01-24T13:11:07.960Z,11.62
2019-01-24T13:13:39.935Z,11.43
2019-01-24T13:16:10.800Z,11.37
2019-01-24T13:18:44.269Z,11.32
2019-01-24T13:21:17.711Z,11.31
2019-01-24T13:24:08.643Z,11.26
2019-01-24T13:26:40.783Z,11.17
2019-01-24T13:29:11.587Z,11.20
2019-01-24T13:31:42.336Z,11.18
2019-01-24T13:34:13.010Z,11.18
2019-01-24T13:36:43.633Z,11.21
2019-01-24T13:39:15.401Z,11.18
2019-01-24T13:41:46.227Z,11.16
2019-01-24T13:44:16.882Z,11.10
2019-01-24T13:46:47.571Z,11.18
2019-01-24T13:49:18.213Z,11.14
2019-01-24T13:51:48.737Z,11.14
2019-01-24T13:54:19.552Z,11.05
2019-01-24T13:56:50.190Z,11.05
2019-01-24T13:59:20.862Z,11.06
2019-01-24T14:01:53.030Z,11.03
2019-01-24T14:04:31.621Z,10.97
2019-01-24T14:07:02.270Z,11.00
2019-01-24T14:09:32.651Z,10.98
2019-01-24T14:12:03.364Z,10.85
2019-01-24T14:14:34.074Z,10.89
2019-01-24T14:17:06.439Z,10.82
2019-01-24T14:19:37.809Z,10.81
2019-01-24T14:22:08.382Z,10.69
2019-01-24T14:24:39.151Z,10.69
2019-01-24T14:27:11.201Z,10.67
2019-01-24T14:29:41.942Z,10.64
2019-01-24T14:32:12.669Z,10.62
2019-01-24T14:34:44.946Z,10.47
2019-01-24T14:37:16.944Z,10.48
2019-01-24T14:39:47.713Z,10.35
2019-01-24T14:42:18.226Z,10.35
2019-01-24T14:44:48.830Z,10.33
2019-01-24T14:47:22.093Z,10.28
2019-01-24T14:49:52.934Z,10.17
2019-01-24T14:52:23.742Z,10.16
2019-01-24T14:54:54.993Z,10.03
2019-01-24T14:57:27.479Z,9.82
2019-01-24T14:59:58.532Z,9.82
2019-01-24T15:02:30.240Z,9.69
2019-01-24T15:05:00.799Z,9.74
2019-01-24T15:07:31.663Z,9.67
2019-01-24T15:10:02.224Z,9.67
2019-01-24T15:12:33.824Z,9.65
2019-01-24T15:15:05.572Z,9.60
2019-01-24T15:17:37.584Z,9.60
2019-01-24T15:20:10.487Z,9.54
2019-01-24T15:22:42.288Z,9.52
2019-01-24T15:25:13.422Z,9.50
2019-01-24T15:27:44.557Z,9.56
2019-01-24T15:30:17.866Z,9.56
2019-01-24T15:32:48.498Z,9.56
2019-01-24T15:35:20.089Z,9.51
2019-01-24T15:37:54.696Z,9.60
2019-01-24T15:40:32.859Z,9.61
2019-01-24T15:43:03.613Z,9.48
2019-01-24T15:45:34.632Z,9.49
2019-01-24T15:48:05.872Z,9.42
2019-01-24T15:50:38.654Z,9.31
2019-01-24T15:53:12.207Z,9.31
2019-01-24T15:55:44.220Z,9.29
2019-01-24T15:58:17.410Z,9.26
2019-01-24T16:00:48.568Z,9.25
2019-01-24T16:03:20.191Z,9.15
2019-01-24T16:05:50.998Z,9.16
2019-01-24T16:08:21.798Z,9.16
2019-01-24T16:10:53.951Z,9.10
2019-01-24T16:13:24.888Z,9.09
2019-01-24T16:15:58.620Z,9.01
2019-01-24T16:18:30.987Z,8.97
2019-01-24T16:21:01.572Z,8.93
2019-01-24T16:23:32.375Z,8.85
2019-01-24T16:26:03.176Z,8.86
2019-01-24T16:28:34.315Z,8.79
2019-01-24T16:31:05.331Z,8.79
2019-01-24T16:33:38.437Z,8.73
2019-01-24T16:36:10.680Z,8.73
2019-01-24T16:38:42.937Z,8.69
2019-01-24T16:41:14.992Z,8.66
2019-01-24T16:43:45.784Z,8.55
2019-01-24T16:46:16.434Z,8.49
2019-01-24T16:48:47.247Z,8.45
2019-01-24T16:51:19.075Z,8.43
2019-01-24T16:53:49.975Z,8.46
2019-01-24T16:56:20.534Z,8.43
2019-01-24T16:58:51.122Z,8.39
2019-01-24T17:01:23.530Z,8.30
2019-01-24T17:03:54.544Z,8.20
2019-01-24T17:06:26.544Z,8.16
2019-01-24T17:08:58.398Z,8.10
2019-01-24T17:11:29.477Z,8.11
2019-01-24T17:14:04.237Z,8.06
2019-01-24T17:16:34.936Z,8.04
2019-01-24T17:19:06.399Z,7.91
2019-01-24T17:21:37.579Z,7.90
2019-01-24T17:24:09.040Z,7.83
2019-01-24T17:26:39.943Z,7.81
2019-01-24T17:29:10.688Z,7.84
2019-01-24T17:31:43.764Z,7.85
2019-01-24T17:34:14.429Z,7.89
2019-01-24T17:36:44.959Z,7.91
2019-01-24T17:39:18.406Z,7.93
2019-01-24T17:41:49.152Z,7.92
2019-01-24T17:44:19.824Z,7.87
2019-01-24T17:46:50.636Z,7.89
2019-01-24T17:49:20.990Z,7.82
2019-01-24T17:51:51.389Z,7.81
2019-01-24T17:54:21.777Z,7.77
2019-01-24T17:56:52.178Z,7.73
2019-01-24T17:59:22.582Z,7.71
2019-01-24T18:01:52.955Z,7.72
2019-01-24T18:04:23.262Z,7.64
2019-01-24T18:06:53.699Z,7.65
2019-01-24T18:09:24.169Z,7.60
2019-01-24T18:11:55.403Z,7.54
2019-01-24T18:14:25.774Z,7.55
2019-01-24T18:16:56.564Z,7.50
2019-01-24T18:19:28.170Z,7.52
2019-01-24T18:21:58.597Z,7.57
2019-01-24T18:24:29.162Z,7.48
2019-01-24T18:27:00.526Z,7.50
2019-01-24T18:29:30.962Z,7.51
2019-01-24T18:32:01.358Z,7.40
2019-01-24T18:34:31.754Z,7.40
2019-01-24T18:37:02.081Z,7.37
2019-01-24T18:39:32.435Z,7.35
2019-01-24T18:42:03.224Z,7.36
2019-01-24T18:44:33.558Z,7.33
2019-01-24T18:47:03.959Z,7.32
2019-01-24T18:49:34.340Z,7.31
2019-01-24T18:52:04.736Z,7.25
2019-01-24T18:54:36.079Z,7.20
2019-01-24T18:57:07.382Z,7.26
2019-01-24T18:59:37.972Z,7.20
2019-01-24T19:02:07.683Z,7.13
2019-01-24T19:04:38.552Z,7.08
2019-01-24T19:07:09.643Z,7.04
2019-01-24T19:09:40.775Z,7.06
2019-01-24T19:12:11.461Z,7.03
2019-01-24T19:14:42.009Z,7.08
2019-01-24T19:17:12.679Z,7.02
2019-01-24T19:19:43.278Z,7.06
2019-01-24T19:22:13.971Z,7.05
2019-01-24T19:24:44.539Z,7.08
2019-01-24T19:27:15.219Z,7.10
2019-01-24T19:29:46.346Z,7.09
2019-01-24T19:32:16.909Z,7.10
2019-01-24T19:34:47.246Z,7.09
2019-01-24T19:37:17.641Z,7.07
2019-01-24T19:39:48.082Z,7.05
2019-01-24T19:42:18.411Z,7.10
2019-01-24T19:44:48.781Z,7.09
2019-01-24T19:47:19.427Z,7.09
2019-01-24T19:49:49.980Z,7.12
2019-01-24T19:52:20.685Z,7.16
2019-01-24T19:54:51.452Z,7.07
2019-01-24T19:57:22.219Z,7.11
2019-01-24T19:59:52.797Z,7.06
2019-01-24T20:02:23.563Z,7.11
2019-01-24T20:04:55.291Z,7.10
2019-01-24T20:07:26.923Z,7.10
2019-01-24T20:09:58.526Z,7.12
2019-01-24T20:12:29.073Z,7.15
2019-01-24T20:14:59.814Z,7.23
2019-01-24T20:17:31.721Z,7.18
2019-01-24T20:20:03.600Z,7.19
2019-01-24T20:22:34.270Z,7.15
2019-01-24T20:25:06.128Z,7.16
2019-01-24T20:27:37.248Z,7.15
2019-01-24T20:30:11.784Z,7.16
2019-01-24T20:32:42.246Z,7.12
2019-01-24T20:35:17.082Z,7.10
2019-01-24T20:37:47.889Z,7.04
2019-01-24T20:40:18.554Z,6.98
2019-01-24T20:42:49.130Z,7.05
2019-01-24T20:45:19.440Z,7.04
2019-01-24T20:47:54.059Z,6.97
2019-01-24T20:50:24.499Z,6.93
2019-01-24T20:52:54.860Z,6.92
2019-01-24T20:55:25.315Z,6.97
2019-01-24T20:57:55.737Z,6.97
2019-01-24T21:00:29.739Z,7.00
2019-01-24T21:03:00.553Z,7.00
2019-01-24T21:05:31.364Z,6.94
2019-01-24T21:08:02.065Z,6.92
2019-01-24T21:10:32.957Z,6.92
2019-01-24T21:13:03.393Z,6.88
2019-01-24T21:15:33.803Z,6.88
2019-01-24T21:18:04.327Z,6.89
2019-01-24T21:20:36.589Z,6.88
2019-01-24T21:23:08.146Z,6.94
2019-01-24T21:25:40.446Z,6.96
2019-01-24T21:28:11.195Z,7.01
2019-01-24T21:30:43.825Z,7.00
2019-01-24T21:33:14.650Z,7.05
2019-01-24T21:35:47.395Z,7.04
2019-01-24T21:38:17.983Z,7.10
2019-01-24T21:40:48.735Z,7.11
2019-01-24T21:43:21.541Z,7.16
2019-01-24T21:45:54.769Z,7.15
2019-01-24T21:48:25.707Z,7.25
2019-01-24T21:50:57.671Z,7.30
2019-01-24T21:53:29.618Z,7.40
2019-01-24T21:56:00.276Z,7.45
2019-01-24T21:58:32.391Z,7.51
2019-01-24T22:01:04.370Z,7.53
2019-01-24T22:03:36.568Z,7.53
2019-01-24T22:06:07.448Z,7.55
2019-01-24T22:08:38.031Z,7.61
2019-01-24T22:11:09.549Z,7.59
2019-01-24T22:13:42.979Z,7.58
2019-01-24T22:16:13.341Z,7.56
2019-01-24T22:18:43.758Z,7.56
2019-01-24T22:21:14.528Z,7.62
2019-01-24T22:23:45.575Z,7.64
2019-01-24T22:26:17.179Z,7.63
2019-01-24T22:28:47.946Z,7.69
2019-01-24T22:31:18.349Z,7.72
2019-01-24T22:33:48.822Z,7.81
2019-01-24T22:36:19.271Z,7.79
2019-01-24T22:38:49.776Z,7.82
2019-01-24T22:41:20.598Z,7.96
2019-01-24T22:43:51.022Z,8.04
2019-01-24T22:46:21.439Z,8.06
2019-01-24T22:48:51.961Z,8.03
2019-01-24T22:51:22.382Z,8.06
2019-01-24T22:53:52.728Z,8.01
2019-01-24T22:56:23.549Z,7.98
2019-01-24T22:58:54.284Z,8.05
2019-01-24T23:01:47.894Z,8.07
2019-01-24T23:04:21.032Z,8.05
2019-01-24T23:06:51.896Z,8.06
2019-01-24T23:09:22.757Z,8.09
2019-01-24T23:11:54.889Z,8.06
2019-01-24T23:15:18.095Z,8.03
2019-01-24T23:17:49.114Z,7.87
2019-01-24T23:20:19.963Z,7.78
2019-01-24T23:22:50.634Z,7.72
2019-01-24T23:25:21.698Z,7.67
2019-01-24T23:27:52.279Z,7.75
2019-01-24T23:30:22.633Z,7.76
2019-01-24T23:32:53.111Z,7.76
2019-01-24T23:35:23.482Z,7.68
2019-01-24T23:37:53.777Z,7.72
2019-01-24T23:40:24.699Z,7.72
2019-01-24T23:42:55.085Z,7.71
2019-01-24T23:45:25.399Z,7.68
2019-01-24T23:48:01.759Z,7.69
2019-01-24T23:50:32.128Z,7.67
2019-01-24T23:53:03.671Z,7.71
2019-01-24T23:55:34.059Z,7.76
2019-01-24T23:58:04.928Z,7.74
